createdAt,value
2023-03-01T00:01:02.627Z,6.96
2023-03-01T00:03:30.271Z,6.98
2023-03-01T00:05:57.942Z,6.99
2023-03-01T00:08:26.292Z,7.07
2023-03-01T00:11:03.153Z,7.18
2023-03-01T00:13:30.922Z,7.15
2023-03-01T00:15:58.515Z,7.09
2023-03-01T00:18:26.192Z,6.82
2023-03-01T00:20:53.915Z,6.87
2023-03-01T00:23:21.541Z,6.88
2023-03-01T00:25:49.186Z,6.87
2023-03-01T00:28:18.155Z,7.03
2023-03-01T00:30:46.473Z,7.02
2023-03-01T00:33:14.275Z,6.91
2023-03-01T00:35:41.887Z,7.09
2023-03-01T00:38:09.545Z,7.05
2023-03-01T00:40:37.926Z,6.84
2023-03-01T00:43:05.650Z,6.86
2023-03-01T00:45:34.648Z,6.62
2023-03-01T00:48:02.320Z,6.69
2023-03-01T00:50:30.029Z,6.73
2023-03-01T00:52:57.794Z,6.76
2023-03-01T00:55:25.457Z,6.67
2023-03-01T00:57:53.184Z,6.76
2023-03-01T01:00:21.288Z,6.65
2023-03-01T01:02:51.223Z,6.50
2023-03-01T01:05:21.759Z,6.09
2023-03-01T01:07:50.021Z,5.38
2023-03-01T01:10:18.409Z,5.58
2023-03-01T01:12:46.475Z,5.28
2023-03-01T01:15:15.190Z,6.89
2023-03-01T01:17:42.902Z,8.32
2023-03-01T01:20:12.804Z,8.72
2023-03-01T01:22:40.465Z,9.51
2023-03-01T01:25:08.348Z,9.55
2023-03-01T01:27:36.006Z,9.70
2023-03-01T01:30:03.691Z,9.78
2023-03-01T01:32:31.800Z,9.81
2023-03-01T01:34:59.419Z,9.77
2023-03-01T01:37:32.100Z,9.18
2023-03-01T01:40:00.442Z,9.19
2023-03-01T01:42:28.162Z,9.77
2023-03-01T01:45:10.615Z,9.86
2023-03-01T01:47:38.228Z,9.39
2023-03-01T01:50:05.980Z,9.46
2023-03-01T01:52:36.099Z,9.72
2023-03-01T01:55:05.095Z,9.25
2023-03-01T01:57:34.895Z,9.20
2023-03-01T02:00:07.070Z,9.55
2023-03-01T02:02:42.076Z,9.65
2023-03-01T02:05:12.423Z,9.71
2023-03-01T02:07:41.602Z,9.79
2023-03-01T02:10:09.844Z,9.85
2023-03-01T02:12:37.530Z,9.75
2023-03-01T02:15:05.483Z,9.76
2023-03-01T02:17:33.113Z,9.70
2023-03-01T02:20:07.863Z,9.76
2023-03-01T02:22:36.633Z,9.57
2023-03-01T02:25:08.407Z,9.67
2023-03-01T02:27:39.477Z,9.59
2023-03-01T02:30:09.010Z,9.67
2023-03-01T02:32:36.237Z,9.54
2023-03-01T02:35:07.463Z,9.49
2023-03-01T02:37:35.591Z,9.32
2023-03-01T02:40:05.244Z,9.33
2023-03-01T02:42:33.948Z,9.40
2023-03-01T02:45:01.672Z,9.50
2023-03-01T02:47:30.709Z,9.59
2023-03-01T02:49:58.372Z,9.64
2023-03-01T02:52:29.408Z,9.49
2023-03-01T02:54:58.435Z,9.22
2023-03-01T02:57:26.102Z,9.35
2023-03-01T02:59:53.938Z,9.47
2023-03-01T03:02:36.799Z,9.16
2023-03-01T03:05:11.501Z,9.07
2023-03-01T03:07:40.575Z,9.23
2023-03-01T03:10:09.160Z,9.36
2023-03-01T03:12:36.797Z,9.28
2023-03-01T03:15:09.642Z,9.30
2023-03-01T03:17:37.863Z,9.40
2023-03-01T03:20:05.991Z,9.20
2023-03-01T03:22:35.950Z,8.31
2023-03-01T03:25:03.569Z,8.46
2023-03-01T03:27:32.907Z,8.74
2023-03-01T03:30:00.536Z,8.92
2023-03-01T03:32:28.178Z,8.91
2023-03-01T03:34:55.830Z,9.09
2023-03-01T03:37:43.161Z,8.85
2023-03-01T03:40:16.291Z,8.45
2023-03-01T03:42:44.082Z,8.94
2023-03-01T03:45:11.844Z,8.80
2023-03-01T03:47:39.488Z,8.98
2023-03-01T03:50:07.463Z,9.00
2023-03-01T03:52:35.164Z,8.91
2023-03-01T03:55:02.740Z,8.89
2023-03-01T03:57:31.740Z,8.93
2023-03-01T03:59:59.327Z,8.88
2023-03-01T04:02:27.269Z,8.89
2023-03-01T04:04:54.925Z,8.93
2023-03-01T04:07:22.525Z,8.56
2023-03-01T04:09:50.228Z,8.54
2023-03-01T04:12:21.505Z,8.36
2023-03-01T04:14:50.529Z,8.03
2023-03-01T04:17:18.108Z,8.25
2023-03-01T04:19:49.633Z,8.57
2023-03-01T04:22:19.286Z,8.65
2023-03-01T04:24:47.183Z,8.50
2023-03-01T04:27:14.778Z,8.56
2023-03-01T04:29:42.433Z,8.48
2023-03-01T04:32:11.528Z,8.44
2023-03-01T04:34:39.197Z,8.55
2023-03-01T04:37:07.177Z,8.69
2023-03-01T04:39:34.826Z,8.68
2023-03-01T04:42:05.945Z,8.69
2023-03-01T04:44:33.746Z,8.62
2023-03-01T04:47:01.569Z,8.59
2023-03-01T04:49:30.949Z,8.68
2023-03-01T04:51:59.297Z,8.57
2023-03-01T04:54:27.227Z,8.38
2023-03-01T04:56:54.931Z,8.36
2023-03-01T04:59:23.418Z,8.46
2023-03-01T05:01:51.126Z,8.71
2023-03-01T05:04:19.017Z,8.71
2023-03-01T05:06:48.035Z,8.75
2023-03-01T05:09:15.632Z,8.60
2023-03-01T05:11:43.268Z,8.18
2023-03-01T05:14:11.171Z,8.47
2023-03-01T05:16:38.944Z,8.49
2023-03-01T05:19:12.364Z,8.10
2023-03-01T05:22:00.636Z,8.79
2023-03-01T05:24:29.855Z,8.94
2023-03-01T05:26:57.487Z,8.94
2023-03-01T05:29:26.890Z,8.70
2023-03-01T05:31:55.294Z,8.82
2023-03-01T05:34:24.980Z,8.81
2023-03-01T05:36:53.999Z,8.87
2023-03-01T05:39:23.325Z,8.87
2023-03-01T05:41:53.889Z,8.15
2023-03-01T05:44:21.510Z,8.70
2023-03-01T05:46:49.120Z,8.82
2023-03-01T05:49:16.997Z,8.66
2023-03-01T05:51:44.919Z,8.71
2023-03-01T05:54:12.577Z,8.93
2023-03-01T05:56:40.276Z,8.86
2023-03-01T05:59:09.267Z,8.88
2023-03-01T06:01:37.172Z,8.85
2023-03-01T06:04:05.017Z,8.74
2023-03-01T06:06:35.488Z,8.86
2023-03-01T06:09:03.145Z,8.98
2023-03-01T06:11:30.736Z,9.03
2023-03-01T06:13:58.438Z,8.98
2023-03-01T06:16:27.543Z,8.91
2023-03-01T06:18:55.175Z,8.96
2023-03-01T06:21:22.838Z,8.27
2023-03-01T06:23:50.633Z,8.62
2023-03-01T06:26:18.642Z,9.16
2023-03-01T06:28:46.968Z,9.53
2023-03-01T06:31:15.832Z,9.76
2023-03-01T06:33:45.863Z,9.85
2023-03-01T06:36:13.585Z,9.99
2023-03-01T06:38:41.574Z,9.98
2023-03-01T06:41:09.291Z,10.08
2023-03-01T06:43:36.980Z,9.97
2023-03-01T06:46:05.955Z,10.42
2023-03-01T06:48:33.813Z,10.62
2023-03-01T06:51:02.814Z,10.80
2023-03-01T06:53:30.505Z,10.83
2023-03-01T06:55:58.263Z,10.83
2023-03-01T06:58:25.953Z,11.05
2023-03-01T07:00:53.696Z,11.28
2023-03-01T07:03:21.356Z,11.10
2023-03-01T07:05:50.415Z,11.30
2023-03-01T07:08:19.419Z,11.49
2023-03-01T07:10:47.024Z,11.56
2023-03-01T07:13:14.678Z,11.77
2023-03-01T07:15:42.394Z,12.18
2023-03-01T07:18:10.165Z,12.44
2023-03-01T07:20:37.969Z,12.55
2023-03-01T07:23:05.561Z,12.47
2023-03-01T07:25:34.708Z,12.25
2023-03-01T07:28:02.310Z,12.49
2023-03-01T07:30:29.932Z,12.67
2023-03-01T07:35:16.835Z,10.44
2023-03-01T07:37:44.511Z,10.41
2023-03-01T07:40:12.996Z,9.93
2023-03-01T07:42:40.631Z,10.25
2023-03-01T07:45:08.790Z,9.77
2023-03-01T07:47:36.508Z,10.41
2023-03-01T07:50:04.747Z,11.20
2023-03-01T07:52:33.887Z,11.08
2023-03-01T07:55:01.519Z,10.56
2023-03-01T07:57:29.165Z,10.83
2023-03-01T07:59:56.838Z,11.11
2023-03-01T08:02:24.513Z,11.32
2023-03-01T08:04:52.116Z,10.99
2023-03-01T08:07:19.732Z,11.63
2023-03-01T08:09:48.744Z,12.08
2023-03-01T08:12:17.244Z,11.54
2023-03-01T08:14:44.920Z,12.13
2023-03-01T08:17:12.618Z,12.34
2023-03-01T08:19:40.346Z,11.96
2023-03-01T08:22:07.961Z,12.20
2023-03-01T08:24:35.640Z,12.05
2023-03-01T08:27:05.392Z,12.21
2023-03-01T08:29:33.166Z,12.38
2023-03-01T08:32:01.030Z,12.40
2023-03-01T08:34:28.763Z,12.82
2023-03-01T08:36:56.550Z,12.80
2023-03-01T08:39:24.280Z,13.00
2023-03-01T08:41:52.015Z,13.09
2023-03-01T08:44:21.878Z,13.29
2023-03-01T08:46:53.766Z,13.28
2023-03-01T08:49:21.627Z,12.17
2023-03-01T08:51:49.555Z,12.97
2023-03-01T08:54:17.865Z,13.48
2023-03-01T08:56:45.593Z,13.67
2023-03-01T08:59:13.375Z,13.64
2023-03-01T09:01:44.234Z,13.37
2023-03-01T09:04:12.115Z,13.03
2023-03-01T09:06:39.779Z,13.25
2023-03-01T09:09:08.849Z,13.82
2023-03-01T09:11:36.578Z,14.02
2023-03-01T09:14:07.127Z,14.03
2023-03-01T09:16:36.897Z,13.98
2023-03-01T09:19:06.189Z,13.88
2023-03-01T09:21:40.615Z,13.86
2023-03-01T09:24:08.828Z,13.61
2023-03-01T09:26:36.507Z,13.19
2023-03-01T09:29:04.320Z,13.71
2023-03-01T09:31:32.008Z,13.66
2023-03-01T09:34:02.438Z,12.58
2023-03-01T09:36:31.747Z,13.59
2023-03-01T09:39:00.813Z,13.87
2023-03-01T09:41:40.249Z,13.75
2023-03-01T09:44:10.497Z,13.33
2023-03-01T09:46:39.193Z,12.54
2023-03-01T09:49:07.651Z,13.12
2023-03-01T09:51:37.138Z,12.34
2023-03-01T09:54:05.085Z,12.07
2023-03-01T09:56:34.759Z,13.73
2023-03-01T09:59:05.543Z,14.25
2023-03-01T10:01:35.771Z,14.60
2023-03-01T10:04:28.988Z,13.53
2023-03-01T10:07:00.455Z,11.73
2023-03-01T10:09:28.155Z,13.73
2023-03-01T10:11:56.273Z,14.19
2023-03-01T10:14:27.286Z,14.25
2023-03-01T10:16:55.490Z,14.89
2023-03-01T10:19:24.782Z,14.68
2023-03-01T10:21:52.843Z,14.76
2023-03-01T10:24:22.521Z,13.96
2023-03-01T10:26:56.385Z,13.74
2023-03-01T10:29:26.123Z,15.02
2023-03-01T10:31:54.515Z,15.59
2023-03-01T10:34:24.059Z,15.75
2023-03-01T10:36:52.438Z,14.04
2023-03-01T10:39:21.018Z,14.58
2023-03-01T10:42:00.580Z,14.11
2023-03-01T10:44:38.336Z,12.39
2023-03-01T10:47:06.146Z,13.01
2023-03-01T10:49:34.080Z,14.39
2023-03-01T10:52:01.756Z,13.53
2023-03-01T10:54:30.290Z,13.50
2023-03-01T10:56:58.608Z,14.18
2023-03-01T10:59:31.418Z,14.77
2023-03-01T11:02:15.057Z,15.37
2023-03-01T11:05:00.358Z,15.72
2023-03-01T11:07:28.098Z,15.45
2023-03-01T11:09:56.005Z,15.70
2023-03-01T11:12:23.612Z,15.67
2023-03-01T11:14:53.187Z,15.93
2023-03-01T11:17:23.918Z,15.70
2023-03-01T11:20:02.807Z,14.01
2023-03-01T11:22:30.896Z,13.18
2023-03-01T11:25:09.431Z,14.38
2023-03-01T11:27:40.000Z,13.87
2023-03-01T11:30:14.522Z,14.12
2023-03-01T11:32:42.908Z,14.95
2023-03-01T11:35:12.569Z,15.33
2023-03-01T11:37:41.284Z,15.12
2023-03-01T11:40:15.805Z,16.24
2023-03-01T11:42:50.105Z,16.65
2023-03-01T11:45:19.290Z,16.95
2023-03-01T11:47:51.411Z,18.05
2023-03-01T11:50:21.435Z,17.96
2023-03-01T11:52:55.996Z,18.11
2023-03-01T11:55:29.144Z,17.48
2023-03-01T11:58:03.887Z,15.33
2023-03-01T12:00:48.672Z,15.17
2023-03-01T12:03:19.955Z,17.37
2023-03-01T12:05:50.652Z,18.73
2023-03-01T12:08:19.297Z,19.60
2023-03-01T12:10:50.885Z,21.37
2023-03-01T12:13:42.569Z,22.85
2023-03-01T12:16:23.082Z,24.87
2023-03-01T12:19:23.557Z,24.40
2023-03-01T12:21:58.066Z,24.54
2023-03-01T12:24:29.816Z,24.92
2023-03-01T12:27:00.514Z,26.22
2023-03-01T12:29:28.406Z,25.13
2023-03-01T12:32:13.356Z,24.89
2023-03-01T12:34:45.377Z,25.36
2023-03-01T12:37:19.545Z,24.90
2023-03-01T12:39:51.163Z,22.83
2023-03-01T12:42:20.582Z,22.61
2023-03-01T12:45:09.363Z,25.28
2023-03-01T12:47:43.996Z,25.95
2023-03-01T12:50:14.087Z,25.83
2023-03-01T12:52:43.178Z,25.87
2023-03-01T12:55:16.331Z,27.37
2023-03-01T12:57:44.484Z,25.88
2023-03-01T13:00:17.724Z,26.73
2023-03-01T13:02:47.943Z,27.99
2023-03-01T13:05:20.753Z,28.03
2023-03-01T13:07:51.449Z,27.32
2023-03-01T13:10:21.837Z,26.23
2023-03-01T13:12:53.127Z,25.33
2023-03-01T13:15:27.303Z,26.39
2023-03-01T13:17:56.734Z,26.44
2023-03-01T13:20:25.654Z,26.02
2023-03-01T13:23:02.942Z,24.08
2023-03-01T13:25:37.728Z,23.36
2023-03-01T13:28:27.801Z,23.17
2023-03-01T13:30:55.454Z,23.38
2023-03-01T13:33:40.828Z,23.41
2023-03-01T13:36:09.561Z,24.24
2023-03-01T13:38:42.027Z,25.16
2023-03-01T13:41:09.819Z,25.30
2023-03-01T13:43:37.747Z,25.25
2023-03-01T13:46:10.398Z,26.31
2023-03-01T13:48:39.407Z,27.07
2023-03-01T13:51:07.867Z,27.26
2023-03-01T13:53:35.995Z,27.34
2023-03-01T13:56:04.175Z,28.73
2023-03-01T13:58:32.120Z,28.23
2023-03-01T14:01:00.685Z,28.66
2023-03-01T14:03:29.132Z,28.89
2023-03-01T14:06:13.030Z,27.29
2023-03-01T14:08:42.485Z,25.49
2023-03-01T14:11:26.254Z,24.91
2023-03-01T14:13:56.936Z,25.79
2023-03-01T14:16:27.523Z,25.91
2023-03-01T14:18:57.107Z,26.82
2023-03-01T14:21:26.701Z,27.68
2023-03-01T14:23:54.591Z,27.64
2023-03-01T14:26:22.815Z,27.33
2023-03-01T14:28:50.624Z,27.80
2023-03-01T14:31:36.158Z,28.25
2023-03-01T14:34:06.235Z,28.72
2023-03-01T14:36:36.095Z,29.22
2023-03-01T14:39:06.756Z,29.33
2023-03-01T14:41:35.073Z,29.47
2023-03-01T14:44:03.669Z,29.64
2023-03-01T14:46:33.609Z,30.56
2023-03-01T14:49:03.600Z,30.19
2023-03-01T14:51:31.283Z,29.73
2023-03-01T14:54:00.273Z,30.15
2023-03-01T14:56:27.967Z,30.30
2023-03-01T14:58:55.877Z,30.14
2023-03-01T15:01:23.499Z,29.48
2023-03-01T15:03:51.438Z,28.62
2023-03-01T15:06:19.528Z,27.94
2023-03-01T15:08:48.309Z,28.49
2023-03-01T15:11:25.446Z,29.56
2023-03-01T15:13:53.678Z,28.95
2023-03-01T15:16:21.794Z,28.97
2023-03-01T15:18:50.304Z,28.52
2023-03-01T15:21:18.947Z,28.83
2023-03-01T15:23:51.528Z,29.37
2023-03-01T15:26:25.017Z,28.72
2023-03-01T15:28:53.437Z,29.71
2023-03-01T15:31:21.818Z,28.72
2023-03-01T15:33:49.563Z,28.85
2023-03-01T15:36:33.637Z,28.29
2023-03-01T15:39:01.766Z,27.75
2023-03-01T15:41:32.850Z,28.04
2023-03-01T15:44:00.912Z,27.79
2023-03-01T15:46:30.393Z,28.30
2023-03-01T15:48:58.962Z,28.07
2023-03-01T15:51:34.397Z,27.80
2023-03-01T15:54:03.156Z,27.36
2023-03-01T15:56:33.253Z,26.53
2023-03-01T15:59:01.796Z,26.23
2023-03-01T16:01:29.420Z,26.29
2023-03-01T16:03:58.451Z,26.09
2023-03-01T16:06:26.394Z,26.06
2023-03-01T16:08:54.051Z,25.41
2023-03-01T16:11:21.904Z,25.04
2023-03-01T16:13:51.078Z,24.35
2023-03-01T16:16:18.892Z,24.14
2023-03-01T16:18:47.074Z,23.87
2023-03-01T16:21:19.890Z,23.67
2023-03-01T16:23:47.561Z,22.41
2023-03-01T16:26:15.202Z,21.75
2023-03-01T16:28:42.917Z,20.18
2023-03-01T16:31:11.943Z,19.51
2023-03-01T16:33:40.330Z,18.71
2023-03-01T16:36:09.138Z,18.06
2023-03-01T16:38:36.990Z,17.63
2023-03-01T16:41:04.685Z,17.41
2023-03-01T16:43:35.052Z,17.41
2023-03-01T16:46:05.024Z,17.05
2023-03-01T16:48:34.128Z,16.89
2023-03-01T16:51:02.005Z,16.42
2023-03-01T16:53:29.656Z,16.34
2023-03-01T16:55:57.623Z,15.98
2023-03-01T16:58:26.128Z,15.44
2023-03-01T17:00:54.648Z,15.24
2023-03-01T17:03:22.557Z,15.19
2023-03-01T17:05:51.656Z,15.20
2023-03-01T17:08:19.348Z,15.31
2023-03-01T17:10:47.225Z,15.25
2023-03-01T17:13:14.887Z,15.12
2023-03-01T17:15:42.835Z,14.95
2023-03-01T17:18:10.561Z,14.73
2023-03-01T17:20:38.165Z,14.59
2023-03-01T17:23:07.223Z,14.35
2023-03-01T17:25:34.905Z,13.96
2023-03-01T17:28:02.554Z,13.88
2023-03-01T17:30:30.320Z,13.69
2023-03-01T17:32:58.014Z,13.45
2023-03-01T17:35:25.686Z,13.56
2023-03-01T17:37:53.376Z,13.32
2023-03-01T17:40:22.443Z,13.34
2023-03-01T17:42:50.031Z,13.08
2023-03-01T17:45:17.762Z,13.24
2023-03-01T17:47:45.458Z,13.12
2023-03-01T17:50:13.350Z,12.41
2023-03-01T17:52:42.465Z,12.29
2023-03-01T17:55:10.506Z,12.34
2023-03-01T17:57:40.660Z,12.47
2023-03-01T18:00:08.964Z,11.97
2023-03-01T18:02:39.427Z,11.84
2023-03-01T18:05:07.630Z,11.83
2023-03-01T18:07:35.308Z,11.75
2023-03-01T18:10:03.060Z,12.15
2023-03-01T18:12:32.520Z,11.92
2023-03-01T18:15:01.564Z,11.43
2023-03-01T18:17:29.249Z,11.42
2023-03-01T18:19:57.206Z,11.56
2023-03-01T18:22:24.810Z,11.38
2023-03-01T18:24:52.488Z,11.87
2023-03-01T18:27:20.077Z,12.34
2023-03-01T18:29:47.764Z,12.36
2023-03-01T18:32:16.999Z,13.03
2023-03-01T18:34:45.410Z,13.36
2023-03-01T18:37:13.041Z,13.19
2023-03-01T18:39:41.625Z,13.09
2023-03-01T18:42:09.524Z,13.54
2023-03-01T18:44:38.354Z,13.75
2023-03-01T18:47:06.033Z,13.60
2023-03-01T18:49:35.070Z,13.25
2023-03-01T18:52:02.730Z,13.52
2023-03-01T18:54:30.326Z,13.51
2023-03-01T18:56:57.925Z,13.47
2023-03-01T18:59:25.515Z,13.20
2023-03-01T19:01:53.226Z,13.13
2023-03-01T19:04:21.149Z,13.16
2023-03-01T19:06:50.149Z,13.25
2023-03-01T19:09:17.824Z,13.23
2023-03-01T19:11:45.505Z,13.11
2023-03-01T19:14:13.145Z,13.04
2023-03-01T19:16:40.742Z,12.89
2023-03-01T19:19:09.973Z,12.82
2023-03-01T19:21:37.839Z,12.82
2023-03-01T19:24:07.380Z,12.58
2023-03-01T19:26:35.605Z,12.65
2023-03-01T19:29:04.856Z,12.66
2023-03-01T19:31:32.533Z,12.59
2023-03-01T19:34:10.513Z,12.40
2023-03-01T19:36:38.539Z,12.17
2023-03-01T19:39:07.780Z,12.04
2023-03-01T19:41:35.644Z,11.98
2023-03-01T19:44:05.400Z,11.96
2023-03-01T19:46:33.643Z,11.86
2023-03-01T19:49:03.087Z,11.50
2023-03-01T19:51:33.219Z,11.64
2023-03-01T19:54:00.849Z,11.54
2023-03-01T19:56:30.383Z,11.22
2023-03-01T19:59:00.578Z,11.05
2023-03-01T20:01:29.744Z,10.76
2023-03-01T20:03:57.519Z,10.69
2023-03-01T20:06:25.665Z,10.37
2023-03-01T20:08:53.477Z,10.63
2023-03-01T20:11:21.146Z,10.16
2023-03-01T20:13:50.140Z,10.30
2023-03-01T20:16:18.205Z,10.12
2023-03-01T20:18:45.916Z,10.07
2023-03-01T20:21:23.654Z,10.03
2023-03-01T20:23:52.279Z,10.16
2023-03-01T20:26:20.462Z,10.37
2023-03-01T20:28:48.517Z,10.78
2023-03-01T20:31:18.218Z,10.98
2023-03-01T20:33:45.914Z,10.98
2023-03-01T20:36:13.653Z,10.82
2023-03-01T20:38:41.304Z,10.88
2023-03-01T20:41:09.486Z,10.84
2023-03-01T20:43:37.374Z,10.74
2023-03-01T20:46:05.317Z,10.85
2023-03-01T20:48:34.465Z,10.90
2023-03-01T20:51:05.606Z,10.85
2023-03-01T20:53:33.236Z,10.98
2023-03-01T20:56:02.924Z,11.04
2023-03-01T20:58:32.660Z,10.95
2023-03-01T21:01:00.434Z,10.93
2023-03-01T21:03:28.103Z,10.61
2023-03-01T21:05:57.590Z,10.42
2023-03-01T21:08:25.270Z,10.44
2023-03-01T21:10:53.025Z,10.02
2023-03-01T21:13:20.674Z,10.05
2023-03-01T21:15:53.094Z,10.21
2023-03-01T21:18:20.769Z,10.22
2023-03-01T21:20:48.401Z,10.07
2023-03-01T21:23:19.326Z,10.18
2023-03-01T21:25:47.028Z,10.08
2023-03-01T21:28:14.708Z,9.67
2023-03-01T21:30:42.547Z,10.09
2023-03-01T21:33:10.302Z,10.25
2023-03-01T21:35:38.068Z,10.21
2023-03-01T21:38:05.896Z,10.22
2023-03-01T21:40:34.915Z,10.14
2023-03-01T21:43:02.550Z,10.09
2023-03-01T21:45:30.401Z,9.95
2023-03-01T21:47:58.081Z,10.25
2023-03-01T21:50:25.868Z,10.34
2023-03-01T21:52:53.529Z,10.30
2023-03-01T21:55:21.209Z,10.30
2023-03-01T21:57:50.260Z,10.27
2023-03-01T22:00:18.670Z,10.22
2023-03-01T22:02:46.380Z,10.14
2023-03-01T22:05:14.137Z,10.24
2023-03-01T22:07:41.834Z,10.19
2023-03-01T22:10:09.945Z,10.16
2023-03-01T22:12:37.657Z,10.04
2023-03-01T22:15:07.553Z,10.09
2023-03-01T22:17:35.203Z,10.03
2023-03-01T22:20:02.881Z,10.02
2023-03-01T22:22:30.585Z,9.97
2023-03-01T22:24:58.193Z,9.92
2023-03-01T22:27:25.808Z,9.95
2023-03-01T22:29:53.453Z,9.68
2023-03-01T22:32:22.696Z,9.70
2023-03-01T22:34:50.446Z,9.84
2023-03-01T22:37:18.044Z,10.06
2023-03-01T22:39:45.740Z,10.07
2023-03-01T22:42:13.447Z,10.14
2023-03-01T22:44:41.783Z,10.09
2023-03-01T22:47:09.381Z,10.04
2023-03-01T22:49:38.488Z,10.09
2023-03-01T22:52:06.298Z,10.04
2023-03-01T22:54:34.065Z,9.99
2023-03-01T22:57:01.701Z,10.09
2023-03-01T22:59:29.292Z,9.97
2023-03-01T23:01:57.200Z,9.95
2023-03-01T23:04:24.852Z,9.96
2023-03-01T23:06:54.885Z,9.90
2023-03-01T23:09:23.925Z,9.96
2023-03-01T23:11:51.604Z,9.89
2023-03-01T23:14:19.435Z,9.84
2023-03-01T23:16:47.077Z,9.99
2023-03-01T23:19:16.445Z,9.87
2023-03-01T23:21:46.752Z,9.88
2023-03-01T23:24:15.894Z,9.80
2023-03-01T23:26:45.581Z,9.98
2023-03-01T23:29:13.414Z,9.96
2023-03-01T23:31:41.051Z,9.63
2023-03-01T23:34:08.741Z,9.60
2023-03-01T23:36:36.334Z,9.72
2023-03-01T23:39:05.262Z,9.77
2023-03-01T23:41:35.187Z,9.73
2023-03-01T23:44:03.312Z,9.66
2023-03-01T23:46:32.099Z,9.71
2023-03-01T23:49:00.111Z,9.71
2023-03-01T23:51:27.995Z,9.74
2023-03-01T23:53:56.143Z,9.70
2023-03-01T23:56:26.633Z,9.57
2023-03-01T23:58:56.475Z,9.67
